createdAt,value
2018-09-22T00:00:57.014Z,2.10
2018-09-22T00:03:25.545Z,2.10
2018-09-22T00:05:54.055Z,2.10
2018-09-22T00:08:22.562Z,1.77
2018-09-22T00:10:51.062Z,2.47
2018-09-22T00:13:19.803Z,2.00
2018-09-22T00:15:48.301Z,2.90
2018-09-22T00:18:16.885Z,2.10
2018-09-22T00:20:45.380Z,2.00
2018-09-22T00:23:13.902Z,2.30
2018-09-22T00:25:42.411Z,1.77
2018-09-22T00:28:10.961Z,3.60
2018-09-22T00:30:39.471Z,2.50
2018-09-22T00:33:07.968Z,1.87
2018-09-22T00:35:36.487Z,2.00
2018-09-22T00:38:05.000Z,2.47
2018-09-22T00:40:33.550Z,2.07
2018-09-22T00:43:02.059Z,2.30
2018-09-22T00:45:30.628Z,1.70
2018-09-22T00:47:59.150Z,1.80
2018-09-22T00:50:27.690Z,2.00
2018-09-22T00:52:56.174Z,1.70
2018-09-22T00:55:24.682Z,1.93
2018-09-22T00:57:53.174Z,2.00
2018-09-22T01:00:21.705Z,2.20
2018-09-22T01:02:50.213Z,2.23
2018-09-22T01:05:18.712Z,1.87
2018-09-22T01:07:47.231Z,2.30
2018-09-22T01:10:15.723Z,2.33
2018-09-22T01:12:44.231Z,2.03
2018-09-22T01:15:12.776Z,2.00
2018-09-22T01:17:41.319Z,1.97
2018-09-22T01:20:09.820Z,1.70
2018-09-22T01:22:38.401Z,2.10
2018-09-22T01:27:57.617Z,2.50
2018-09-22T01:30:26.125Z,2.07
2018-09-22T01:32:54.689Z,2.27
2018-09-22T01:35:23.194Z,2.30
2018-09-22T01:37:51.717Z,1.73
2018-09-22T01:40:20.291Z,3.00
2018-09-22T01:42:48.874Z,2.70
2018-09-22T01:45:17.439Z,2.47
2018-09-22T01:47:46.111Z,2.80
2018-09-22T01:50:14.622Z,2.47
2018-09-22T01:52:43.171Z,1.63
2018-09-22T01:55:11.686Z,2.20
2018-09-22T01:57:40.252Z,2.40
2018-09-22T02:00:08.759Z,1.77
2018-09-22T02:02:37.357Z,2.40
2018-09-22T02:05:05.912Z,2.03
2018-09-22T02:07:34.707Z,2.40
2018-09-22T02:10:03.244Z,2.30
2018-09-22T02:12:31.738Z,2.30
2018-09-22T02:15:00.260Z,2.10
2018-09-22T02:17:28.750Z,2.37
2018-09-22T02:19:57.254Z,2.80
2018-09-22T02:22:25.743Z,1.70
2018-09-22T02:24:54.286Z,2.20
2018-09-22T02:27:22.775Z,2.03
2018-09-22T02:29:54.217Z,1.93
2018-09-22T02:32:22.701Z,1.63
2018-09-22T02:34:51.214Z,1.70
2018-09-22T02:37:20.173Z,2.57
2018-09-22T02:39:48.725Z,2.03
2018-09-22T02:42:17.232Z,1.97
2018-09-22T02:44:45.735Z,2.47
2018-09-22T02:47:14.244Z,1.87
2018-09-22T02:49:42.727Z,2.17
2018-09-22T02:52:11.235Z,1.93
2018-09-22T02:54:39.738Z,2.97
2018-09-22T02:57:08.242Z,1.73
2018-09-22T02:59:36.723Z,2.40
2018-09-22T03:02:05.239Z,2.37
2018-09-22T03:04:33.770Z,2.07
2018-09-22T03:07:02.396Z,1.97
2018-09-22T03:09:30.939Z,2.60
2018-09-22T03:11:59.477Z,1.83
2018-09-22T03:14:27.975Z,2.40
2018-09-22T03:16:56.491Z,2.00
2018-09-22T03:19:25.059Z,2.10
2018-09-22T03:21:53.613Z,2.23
2018-09-22T03:24:22.118Z,2.30
2018-09-22T03:26:50.610Z,2.23
2018-09-22T03:29:19.141Z,1.93
2018-09-22T03:31:47.623Z,2.40
2018-09-22T03:34:16.166Z,3.07
2018-09-22T03:36:44.663Z,2.70
2018-09-22T03:39:13.168Z,2.20
2018-09-22T03:41:41.675Z,2.43
2018-09-22T03:44:10.647Z,3.23
2018-09-22T03:46:39.262Z,2.50
2018-09-22T03:49:07.829Z,1.90
2018-09-22T03:51:36.345Z,3.10
2018-09-22T03:54:04.839Z,2.90
2018-09-22T03:56:33.645Z,1.93
2018-09-22T03:59:02.182Z,2.30
2018-09-22T04:01:30.691Z,2.73
2018-09-22T04:03:59.169Z,2.30
2018-09-22T04:06:27.688Z,2.57
2018-09-22T04:08:56.182Z,2.13
2018-09-22T04:11:24.690Z,1.50
2018-09-22T04:13:53.178Z,2.63
2018-09-22T04:16:21.681Z,1.90
2018-09-22T04:18:50.175Z,2.90
2018-09-22T04:21:18.691Z,1.80
2018-09-22T04:23:47.182Z,1.60
2018-09-22T04:26:15.767Z,2.03
2018-09-22T04:28:44.346Z,2.80
2018-09-22T04:31:12.832Z,2.10
2018-09-22T04:33:41.382Z,2.73
2018-09-22T04:36:09.870Z,2.70
2018-09-22T04:38:38.402Z,1.80
2018-09-22T04:41:06.914Z,2.10
2018-09-22T04:43:35.470Z,2.40
2018-09-22T04:46:03.973Z,2.43
2018-09-22T04:48:32.479Z,2.03
2018-09-22T04:51:00.978Z,2.70
2018-09-22T04:53:29.478Z,1.60
2018-09-22T04:55:57.970Z,2.03
2018-09-22T04:58:26.494Z,2.00
2018-09-22T05:00:55.037Z,2.20
2018-09-22T05:03:23.555Z,2.13
2018-09-22T05:05:52.055Z,2.23
2018-09-22T05:08:20.574Z,3.03
2018-09-22T05:10:49.063Z,2.20
2018-09-22T05:13:17.557Z,1.47
2018-09-22T05:15:46.070Z,2.17
2018-09-22T05:18:14.566Z,3.10
2018-09-22T05:20:43.078Z,1.90
2018-09-22T05:23:11.582Z,2.10
2018-09-22T05:25:40.098Z,2.10
2018-09-22T05:28:08.605Z,2.73
2018-09-22T05:30:37.125Z,2.30
2018-09-22T05:33:05.733Z,2.57
2018-09-22T05:35:34.267Z,1.90
2018-09-22T05:38:02.780Z,1.30
2018-09-22T05:40:31.339Z,1.90
2018-09-22T05:42:59.821Z,2.30
2018-09-22T05:45:28.387Z,2.20
2018-09-22T05:47:56.877Z,2.50
2018-09-22T05:50:25.382Z,1.93
2018-09-22T05:52:53.890Z,2.27
2018-09-22T05:55:22.409Z,2.20
2018-09-22T05:57:50.919Z,1.80
2018-09-22T06:00:19.468Z,2.33
2018-09-22T06:02:47.966Z,3.10
2018-09-22T06:05:16.462Z,1.83
2018-09-22T06:07:44.992Z,2.10
2018-09-22T06:10:13.487Z,1.63
2018-09-22T06:12:41.970Z,2.13
2018-09-22T06:15:10.482Z,2.07
2018-09-22T06:17:39.000Z,2.43
2018-09-22T06:20:07.550Z,1.87
2018-09-22T06:22:36.061Z,1.73
2018-09-22T06:25:04.635Z,1.90
2018-09-22T06:27:33.131Z,1.70
2018-09-22T06:30:01.668Z,1.90
2018-09-22T06:32:30.159Z,1.63
2018-09-22T06:34:58.725Z,1.83
2018-09-22T06:37:27.250Z,2.20
2018-09-22T06:39:55.878Z,2.43
2018-09-22T06:42:24.367Z,1.80
2018-09-22T06:44:52.895Z,1.40
2018-09-22T06:47:21.395Z,2.03
2018-09-22T06:49:49.915Z,2.20
2018-09-22T06:52:18.462Z,1.70
2018-09-22T06:54:47.001Z,1.70
2018-09-22T06:57:15.502Z,2.17
2018-09-22T06:59:44.025Z,2.03
2018-09-22T07:02:12.593Z,2.23
2018-09-22T07:04:41.104Z,2.40
2018-09-22T07:07:10.061Z,2.13
2018-09-22T07:09:38.837Z,1.87
2018-09-22T07:12:07.494Z,2.77
2018-09-22T07:14:36.005Z,2.43
2018-09-22T07:17:04.524Z,2.47
2018-09-22T07:19:33.168Z,2.43
2018-09-22T07:22:06.949Z,2.07
2018-09-22T07:24:35.453Z,2.17
2018-09-22T07:27:03.982Z,2.40
2018-09-22T07:29:32.478Z,3.00
2018-09-22T07:32:01.139Z,1.77
2018-09-22T07:34:29.649Z,2.23
2018-09-22T07:36:58.175Z,2.83
2018-09-22T07:39:26.724Z,2.13
2018-09-22T07:41:55.404Z,2.30
2018-09-22T07:44:24.045Z,1.83
2018-09-22T07:46:52.573Z,2.00
2018-09-22T07:49:21.109Z,2.00
2018-09-22T07:51:49.671Z,2.00
2018-09-22T07:54:18.187Z,1.73
2018-09-22T07:56:46.702Z,1.93
2018-09-22T07:59:15.258Z,1.93
2018-09-22T08:01:43.788Z,1.43
2018-09-22T08:04:12.326Z,2.03
2018-09-22T08:06:40.858Z,1.40
2018-09-22T08:09:09.707Z,1.80
2018-09-22T08:11:38.292Z,1.97
2018-09-22T08:14:06.942Z,1.90
2018-09-22T08:16:35.549Z,2.00
2018-09-22T08:19:04.081Z,2.50
2018-09-22T08:21:32.646Z,2.00
2018-09-22T08:24:01.188Z,1.93
2018-09-22T08:26:29.747Z,2.00
2018-09-22T08:28:58.259Z,1.73
2018-09-22T08:31:26.816Z,2.50
2018-09-22T08:33:55.438Z,1.60
2018-09-22T08:36:24.167Z,2.33
2018-09-22T08:38:52.640Z,1.77
2018-09-22T08:41:21.205Z,2.00
2018-09-22T08:43:49.750Z,1.83
2018-09-22T08:46:18.275Z,1.53
2018-09-22T08:48:46.787Z,1.73
2018-09-22T08:51:15.488Z,1.90
2018-09-22T08:53:44.070Z,1.80
2018-09-22T08:56:12.696Z,2.60
2018-09-22T08:58:41.346Z,1.70
2018-09-22T09:01:09.755Z,1.67
2018-09-22T09:03:38.291Z,1.80
2018-09-22T09:06:06.938Z,1.83
2018-09-22T09:08:35.507Z,1.93
2018-09-22T09:11:04.087Z,1.93
2018-09-22T09:13:32.719Z,1.70
2018-09-22T09:16:01.195Z,2.07
2018-09-22T09:18:29.800Z,2.07
2018-09-22T09:20:58.412Z,1.47
2018-09-22T09:23:27.196Z,2.20
2018-09-22T09:25:55.738Z,1.80
2018-09-22T09:28:24.302Z,1.60
2018-09-22T09:30:52.961Z,2.60
2018-09-22T09:33:21.441Z,2.13
2018-09-22T09:35:50.129Z,2.03
2018-09-22T09:38:18.757Z,1.60
2018-09-22T09:40:47.386Z,1.70
2018-09-22T09:43:15.962Z,1.23
2018-09-22T09:45:44.505Z,2.17
2018-09-22T09:48:13.153Z,1.70
2018-09-22T09:50:41.657Z,1.60
2018-09-22T09:53:10.149Z,2.10
2018-09-22T09:55:38.718Z,2.00
2018-09-22T09:58:07.535Z,1.93
2018-09-22T10:00:41.426Z,2.17
2018-09-22T10:03:09.953Z,1.40
2018-09-22T10:05:38.512Z,1.70
2018-09-22T10:08:07.237Z,1.50
2018-09-22T10:10:36.150Z,1.67
2018-09-22T10:13:04.742Z,1.80
2018-09-22T10:15:33.363Z,1.70
2018-09-22T10:18:01.914Z,1.30
2018-09-22T10:20:30.499Z,1.73
2018-09-22T10:22:59.017Z,1.80
2018-09-22T10:25:27.571Z,1.50
2018-09-22T10:27:56.208Z,1.57
2018-09-22T10:30:24.765Z,1.40
2018-09-22T10:32:53.302Z,1.63
2018-09-22T10:35:21.850Z,1.30
2018-09-22T10:37:50.350Z,1.57
2018-09-22T10:40:18.903Z,1.90
2018-09-22T10:42:47.615Z,1.90
2018-09-22T10:45:16.215Z,1.30
2018-09-22T10:47:44.769Z,1.37
2018-09-22T10:50:13.311Z,1.40
2018-09-22T10:52:41.954Z,1.00
2018-09-22T10:55:10.479Z,0.80
2018-09-22T10:57:38.990Z,1.00
2018-09-22T11:00:07.530Z,1.17
2018-09-22T11:02:36.074Z,1.00
2018-09-22T11:05:04.647Z,0.70
2018-09-22T11:07:33.174Z,1.30
2018-09-22T11:10:01.678Z,1.37
2018-09-22T11:12:30.227Z,1.00
2018-09-22T11:14:58.735Z,1.60
2018-09-22T11:17:27.246Z,0.83
2018-09-22T11:19:55.816Z,1.20
2018-09-22T11:22:24.554Z,1.53
2018-09-22T11:24:53.107Z,1.33
2018-09-22T11:27:21.805Z,1.63
2018-09-22T11:29:50.333Z,1.27
2018-09-22T11:32:18.906Z,1.50
2018-09-22T11:34:47.422Z,1.87
2018-09-22T11:37:16.008Z,2.20
2018-09-22T11:39:44.554Z,1.20
2018-09-22T11:42:13.081Z,1.40
2018-09-22T11:44:41.660Z,1.70
2018-09-22T11:47:10.226Z,2.27
2018-09-22T11:49:38.740Z,1.70
2018-09-22T11:52:07.328Z,1.80
2018-09-22T11:54:35.903Z,1.47
2018-09-22T11:57:04.470Z,2.10
2018-09-22T11:59:32.999Z,1.60
2018-09-22T12:02:01.617Z,1.40
2018-09-22T12:04:30.142Z,2.10
2018-09-22T12:06:58.699Z,1.70
2018-09-22T12:09:27.296Z,2.20
2018-09-22T12:11:55.832Z,1.63
2018-09-22T12:14:24.396Z,1.57
2018-09-22T12:16:52.982Z,1.47
2018-09-22T12:19:21.562Z,1.50
2018-09-22T12:21:50.068Z,1.70
2018-09-22T12:24:18.665Z,1.73
2018-09-22T12:26:47.166Z,1.73
2018-09-22T12:29:15.761Z,1.73
2018-09-22T12:31:44.372Z,1.80
2018-09-22T12:34:12.903Z,1.87
2018-09-22T12:36:41.460Z,1.40
2018-09-22T12:39:11.174Z,1.80
2018-09-22T12:41:40.269Z,1.00
2018-09-22T12:44:09.203Z,0.80
2018-09-22T12:46:37.781Z,2.00
2018-09-22T12:49:06.365Z,1.13
2018-09-22T12:51:35.066Z,1.20
2018-09-22T12:54:03.615Z,1.20
2018-09-22T12:56:32.694Z,1.27
2018-09-22T12:59:01.384Z,1.43
2018-09-22T13:01:29.902Z,1.53
2018-09-22T13:03:58.494Z,1.60
2018-09-22T13:06:27.493Z,1.13
2018-09-22T13:08:56.039Z,1.53
2018-09-22T13:11:24.608Z,1.20
2018-09-22T13:13:53.167Z,2.17
2018-09-22T13:16:21.867Z,1.40
2018-09-22T13:18:50.396Z,1.33
2018-09-22T13:21:18.941Z,1.50
2018-09-22T13:23:47.473Z,1.70
2018-09-22T13:26:16.059Z,1.60
2018-09-22T13:28:44.610Z,1.17
2018-09-22T13:31:13.168Z,1.30
2018-09-22T13:33:41.753Z,1.63
2018-09-22T13:36:10.367Z,1.53
2018-09-22T13:38:38.995Z,1.80
2018-09-22T13:41:07.548Z,2.70
2018-09-22T13:43:36.100Z,1.93
2018-09-22T13:46:04.707Z,1.37
2018-09-22T13:48:33.316Z,1.80
2018-09-22T13:51:01.883Z,1.87
2018-09-22T13:53:30.431Z,1.30
2018-09-22T13:55:58.972Z,1.17
2018-09-22T13:58:27.559Z,1.27
2018-09-22T14:00:56.083Z,1.03
2018-09-22T14:03:24.645Z,2.33
2018-09-22T14:05:53.157Z,1.83
2018-09-22T14:08:21.717Z,1.50
2018-09-22T14:10:50.379Z,1.60
2018-09-22T14:13:18.916Z,1.53
2018-09-22T14:15:47.426Z,1.50
2018-09-22T14:18:16.024Z,2.10
2018-09-22T14:20:44.535Z,1.67
2018-09-22T14:23:13.067Z,1.57
2018-09-22T14:25:41.598Z,1.70
2018-09-22T14:28:10.171Z,1.30
2018-09-22T14:30:38.690Z,1.80
2018-09-22T14:33:07.311Z,1.97
2018-09-22T14:35:42.547Z,1.80
2018-09-22T14:38:11.131Z,1.90
2018-09-22T14:40:39.721Z,1.70
2018-09-22T14:43:08.243Z,1.77
2018-09-22T14:45:37.850Z,1.73
2018-09-22T14:48:06.427Z,2.43
2018-09-22T14:50:35.082Z,1.20
2018-09-22T14:53:03.693Z,1.53
2018-09-22T14:55:32.309Z,1.60
2018-09-22T14:58:00.834Z,1.83
2018-09-22T15:00:29.452Z,1.07
2018-09-22T15:02:58.022Z,1.23
2018-09-22T15:05:27.232Z,1.50
2018-09-22T15:07:55.926Z,1.80
2018-09-22T15:10:24.491Z,1.50
2018-09-22T15:12:53.335Z,1.23
2018-09-22T15:15:22.400Z,1.30
2018-09-22T15:17:50.898Z,1.50
2018-09-22T15:20:19.519Z,2.03
2018-09-22T15:22:48.111Z,1.50
2018-09-22T15:25:17.519Z,2.77
2018-09-22T15:27:46.083Z,1.20
2018-09-22T15:30:14.630Z,1.83
2018-09-22T15:32:43.224Z,1.50
2018-09-22T15:35:12.159Z,1.67
2018-09-22T15:37:40.991Z,2.10
2018-09-22T15:40:09.612Z,1.53
2018-09-22T15:42:38.402Z,1.33
2018-09-22T15:45:08.168Z,1.40
2018-09-22T15:47:36.873Z,1.90
2018-09-22T15:50:05.569Z,1.20
2018-09-22T15:52:34.386Z,1.37
2018-09-22T15:55:02.926Z,1.87
2018-09-22T15:57:31.456Z,1.53
2018-09-22T16:00:00.041Z,1.43
2018-09-22T16:02:28.724Z,1.43
2018-09-22T16:04:57.246Z,1.13
2018-09-22T16:07:25.843Z,1.20
2018-09-22T16:09:54.362Z,1.77
2018-09-22T16:12:22.928Z,1.40
2018-09-22T16:14:51.533Z,1.90
2018-09-22T16:17:20.086Z,1.40
2018-09-22T16:19:48.589Z,1.70
2018-09-22T16:22:17.142Z,2.00
2018-09-22T16:24:45.688Z,2.00
2018-09-22T16:27:14.298Z,2.47
2018-09-22T16:29:42.840Z,2.97
2018-09-22T16:32:11.347Z,2.00
2018-09-22T16:34:39.900Z,1.83
2018-09-22T16:37:08.554Z,1.30
2018-09-22T16:39:37.130Z,2.63
2018-09-22T16:42:05.802Z,2.63
2018-09-22T16:44:34.348Z,1.20
2018-09-22T16:47:02.923Z,2.37
2018-09-22T16:49:31.563Z,1.73
2018-09-22T16:52:00.051Z,2.17
2018-09-22T16:54:28.575Z,2.60
2018-09-22T16:56:57.122Z,1.97
2018-09-22T16:59:25.678Z,1.90
2018-09-22T17:01:54.220Z,2.73
2018-09-22T17:04:22.723Z,1.67
2018-09-22T17:06:51.298Z,2.03
2018-09-22T17:09:19.851Z,2.10
2018-09-22T17:11:48.363Z,1.90
2018-09-22T17:14:16.943Z,2.10
2018-09-22T17:16:45.490Z,1.57
2018-09-22T17:19:14.095Z,1.87
2018-09-22T17:21:42.623Z,1.73
2018-09-22T17:24:11.431Z,1.67
2018-09-22T17:26:39.999Z,1.17
2018-09-22T17:29:08.615Z,2.20
2018-09-22T17:31:37.182Z,1.70
2018-09-22T17:34:05.783Z,1.70
2018-09-22T17:36:34.306Z,2.07
2018-09-22T17:39:02.956Z,1.67
2018-09-22T17:41:32.038Z,1.70
2018-09-22T17:44:00.550Z,1.70
2018-09-22T17:46:29.106Z,2.50
2018-09-22T17:48:57.658Z,1.30
2018-09-22T17:51:26.182Z,1.80
2018-09-22T17:53:54.906Z,1.83
2018-09-22T17:56:23.464Z,1.83
2018-09-22T17:58:51.974Z,1.67
2018-09-22T18:01:20.494Z,1.80
2018-09-22T18:03:49.063Z,1.63
2018-09-22T18:06:17.590Z,2.10
2018-09-22T18:08:46.130Z,2.30
2018-09-22T18:11:14.682Z,2.03
2018-09-22T18:13:43.553Z,2.03
2018-09-22T18:16:12.201Z,1.83
2018-09-22T18:18:40.693Z,2.60
2018-09-22T18:21:09.451Z,2.10
2018-09-22T18:23:37.953Z,2.57
2018-09-22T18:26:06.650Z,2.60
2018-09-22T18:28:35.222Z,2.00
2018-09-22T18:31:03.745Z,1.60
2018-09-22T18:33:32.271Z,2.23
2018-09-22T18:36:00.776Z,2.33
2018-09-22T18:38:29.271Z,2.50
2018-09-22T18:40:57.779Z,2.47
2018-09-22T18:43:26.278Z,2.60
2018-09-22T18:45:58.593Z,2.07
2018-09-22T18:48:27.102Z,2.27
2018-09-22T18:50:55.648Z,3.37
2018-09-22T18:53:24.127Z,3.10
2018-09-22T18:55:52.657Z,2.40
2018-09-22T18:58:21.215Z,2.37
2018-09-22T19:00:50.054Z,2.53
2018-09-22T19:03:18.599Z,2.80
2018-09-22T19:05:47.118Z,2.93
2018-09-22T19:08:15.678Z,3.93
2018-09-22T19:10:44.168Z,3.00
2018-09-22T19:13:15.197Z,3.40
2018-09-22T19:15:48.889Z,3.27
2018-09-22T19:18:24.467Z,2.97
2018-09-22T19:21:02.614Z,4.27
2018-09-22T19:23:42.399Z,3.97
2018-09-22T19:26:21.528Z,3.10
2018-09-22T19:28:57.174Z,3.60
2018-09-22T19:31:36.157Z,3.40
2018-09-22T19:34:08.995Z,3.60
2018-09-22T19:36:40.299Z,3.80
2018-09-22T19:39:18.537Z,3.97
2018-09-22T19:41:50.581Z,3.67
2018-09-22T19:44:29.663Z,4.23
2018-09-22T19:47:03.258Z,4.03
2018-09-22T19:49:35.507Z,3.87
2018-09-22T19:52:06.851Z,3.10
2018-09-22T19:54:35.435Z,3.70
2018-09-22T19:57:04.116Z,3.40
2018-09-22T19:59:32.622Z,2.90
2018-09-22T20:02:01.170Z,3.50
2018-09-22T20:04:29.687Z,4.90
2018-09-22T20:06:58.255Z,4.90
2018-09-22T20:09:26.803Z,3.70
2018-09-22T20:11:55.386Z,3.43
2018-09-22T20:14:23.967Z,3.57
2018-09-22T20:16:52.519Z,3.10
2018-09-22T20:19:21.054Z,3.43
2018-09-22T20:21:49.573Z,3.97
2018-09-22T20:24:18.140Z,3.73
2018-09-22T20:26:46.651Z,3.03
2018-09-22T20:29:15.172Z,2.87
2018-09-22T20:31:43.686Z,3.63
2018-09-22T20:34:12.198Z,3.40
2018-09-22T20:36:40.734Z,3.73
2018-09-22T20:39:10.747Z,6.53
2018-09-22T20:41:39.273Z,7.80
2018-09-22T20:44:07.807Z,8.30
2018-09-22T20:46:36.322Z,7.57
2018-09-22T20:49:04.930Z,7.50
2018-09-22T20:51:33.527Z,6.67
2018-09-22T20:54:02.041Z,7.40
2018-09-22T20:56:30.570Z,6.37
2018-09-22T20:58:59.103Z,6.20
2018-09-22T21:01:27.668Z,5.20
2018-09-22T21:03:56.297Z,5.33
2018-09-22T21:06:24.854Z,5.83
2018-09-22T21:08:53.416Z,5.50
2018-09-22T21:11:21.946Z,5.57
2018-09-22T21:13:50.499Z,4.97
2018-09-22T21:16:19.003Z,4.90
2018-09-22T21:18:47.593Z,4.93
2018-09-22T21:21:16.098Z,4.87
2018-09-22T21:23:44.698Z,5.17
2018-09-22T21:26:13.208Z,4.57
2018-09-22T21:28:41.746Z,5.90
2018-09-22T21:31:10.336Z,5.30
2018-09-22T21:33:38.821Z,4.50
2018-09-22T21:36:07.315Z,5.20
2018-09-22T21:38:35.875Z,4.50
2018-09-22T21:41:04.454Z,5.40
2018-09-22T21:43:32.995Z,3.93
2018-09-22T21:46:01.493Z,4.70
2018-09-22T21:48:29.990Z,4.27
2018-09-22T21:50:58.510Z,4.67
2018-09-22T21:53:27.001Z,4.60
2018-09-22T21:55:55.521Z,4.60
2018-09-22T21:58:24.022Z,5.00
2018-09-22T22:00:53.712Z,4.40
2018-09-22T22:03:23.295Z,5.70
2018-09-22T22:05:51.857Z,4.23
2018-09-22T22:08:20.358Z,4.53
2018-09-22T22:10:48.898Z,3.90
2018-09-22T22:13:17.406Z,4.40
2018-09-22T22:15:46.023Z,5.13
2018-09-22T22:18:14.653Z,4.80
2018-09-22T22:20:43.211Z,5.00
2018-09-22T22:23:11.818Z,4.53
2018-09-22T22:25:40.386Z,4.93
2018-09-22T22:28:09.003Z,5.03
2018-09-22T22:30:37.590Z,4.50
2018-09-22T22:33:06.246Z,4.87
2018-09-22T22:35:34.799Z,4.83
2018-09-22T22:38:03.335Z,4.40
2018-09-22T22:40:31.925Z,5.47
2018-09-22T22:43:00.502Z,4.63
2018-09-22T22:45:29.084Z,5.00
2018-09-22T22:47:57.661Z,6.17
2018-09-22T22:50:26.231Z,6.60
2018-09-22T22:52:54.802Z,5.80
2018-09-22T22:55:23.457Z,6.47
2018-09-22T22:57:52.044Z,6.33
2018-09-22T23:00:20.767Z,7.30
2018-09-22T23:02:49.282Z,6.93
2018-09-22T23:05:17.824Z,7.20
2018-09-22T23:07:46.350Z,8.50
2018-09-22T23:10:14.878Z,8.63
2018-09-22T23:12:43.434Z,8.33
2018-09-22T23:15:12.039Z,8.03
2018-09-22T23:17:40.611Z,8.40
2018-09-22T23:20:09.240Z,8.33
2018-09-22T23:22:37.842Z,8.53
2018-09-22T23:25:06.470Z,9.10
2018-09-22T23:27:35.114Z,9.37
2018-09-22T23:30:03.747Z,9.43
2018-09-22T23:32:32.258Z,8.83
2018-09-22T23:35:00.831Z,9.90
2018-09-22T23:37:29.405Z,8.17
2018-09-22T23:39:57.977Z,9.00
2018-09-22T23:42:26.567Z,8.53
2018-09-22T23:44:55.732Z,7.67
2018-09-22T23:47:24.337Z,7.57
2018-09-22T23:49:52.886Z,7.87
2018-09-22T23:52:21.489Z,7.33
2018-09-22T23:54:50.018Z,9.13
2018-09-22T23:57:18.608Z,9.20
2018-09-22T23:59:47.175Z,9.33
